Huvudsida
METAR-TAF:

METAR-TAF

Flygplatser :

Kristiansunds flygplats. Kvernberget

Kristiansunds, Norge

latitud: 63-07N, longitud: 007-50E, höjd: 6 m

Aktuellt väderrapport

Denna rapport gjordes för 24 minuter sedan, klockan 14:20 UTC
Vind 5 kt från nord/nordost, varierande mellan nord/nordväst och ost/nordost
Temperatur 19°C
Fuktighet 28%
Tryck 1016 hPa
Sikt 10 km eller mer
Inga moln under 1 500 m eller inga cumulonimbus

METAR: ENKB 231420Z 02005KT 340V060 CAVOK 19/M00 Q1016 RMK WIND 745FT 04003KT

Tid: 16:44 (14:44 UTC)

Väderprognos

Denna rapport gjordes för 3 timmar och 44 minuter sedan, klockan 11:00 UTC
Prognos gäller från 23 kl. 12 UTC till 23 kl. 21 UTC
Vind 8 kt från ost/sydost
Sikt 10 km eller mer
Inga moln under 1 500 m eller inga cumulonimbus
Sannolikhet 40%
från 23 kl. 13 UTC till 23 kl. 16 UTC
Vind 12 kt från väst/nordväst

TAF: ENKB 231100Z 2312/2321 11008KT CAVOK PROB40 2313/2316 29012KT

Aktuella väderrapporter och prognoser från 4000 flygplatser (METAR- och TAF-rapporter).

De tillgängliga stationerna syns som gula och röda prickar på kartan.

För musen över prickarna för att se namnen på stationerna.

Klicka sedan för att få väderrapporter och prognoser.

För att ändra kartan: Klicka på de gröna knapparna med ett svart kors på för att zooma in; den gröna knappen med ett streck på för att zooma ut; eller på de gröna pilarna för angränsande kartor.


METAR-TAF: